sensor_id;sensor_type;location;lat;lon;timestamp;P1;durP1;ratioP1;P2;durP2;ratioP2
70800;SDS011;59616;52.170;5.386;2023-09-08T00:01:24;14.73;;;8.15;;
70800;SDS011;59616;52.170;5.386;2023-09-08T00:03:51;15.77;;;7.90;;
70800;SDS011;59616;52.170;5.386;2023-09-08T00:06:18;17.08;;;8.43;;
70800;SDS011;59616;52.170;5.386;2023-09-08T00:08:46;16.80;;;8.45;;
70800;SDS011;59616;52.170;5.386;2023-09-08T00:11:13;14.73;;;8.50;;
70800;SDS011;59616;52.170;5.386;2023-09-08T00:13:40;16.67;;;7.80;;
70800;SDS011;59616;52.170;5.386;2023-09-08T00:16:08;15.23;;;8.25;;
70800;SDS011;59616;52.170;5.386;2023-09-08T00:18:36;16.77;;;8.60;;
70800;SDS011;59616;52.170;5.386;2023-09-08T00:21:03;14.45;;;8.45;;
70800;SDS011;59616;52.170;5.386;2023-09-08T00:23:31;16.20;;;8.73;;
70800;SDS011;59616;52.170;5.386;2023-09-08T00:25:58;18.33;;;8.50;;
70800;SDS011;59616;52.170;5.386;2023-09-08T00:28:25;15.70;;;8.50;;
70800;SDS011;59616;52.170;5.386;2023-09-08T00:30:53;17.48;;;8.98;;
70800;SDS011;59616;52.170;5.386;2023-09-08T00:33:20;17.10;;;8.57;;
70800;SDS011;59616;52.170;5.386;2023-09-08T00:35:48;16.88;;;8.68;;
70800;SDS011;59616;52.170;5.386;2023-09-08T00:38:16;15.30;;;8.52;;
70800;SDS011;59616;52.170;5.386;2023-09-08T00:40:43;16.92;;;8.63;;
70800;SDS011;59616;52.170;5.386;2023-09-08T00:43:11;18.25;;;8.93;;
70800;SDS011;59616;52.170;5.386;2023-09-08T00:45:39;15.85;;;8.60;;
70800;SDS011;59616;52.170;5.386;2023-09-08T00:48:07;16.10;;;8.45;;
70800;SDS011;59616;52.170;5.386;2023-09-08T00:50:35;17.13;;;9.32;;
70800;SDS011;59616;52.170;5.386;2023-09-08T00:53:03;16.55;;;9.35;;
70800;SDS011;59616;52.170;5.386;2023-09-08T00:55:31;17.75;;;9.35;;
70800;SDS011;59616;52.170;5.386;2023-09-08T00:57:59;16.63;;;8.93;;
70800;SDS011;59616;52.170;5.386;2023-09-08T01:00:26;16.25;;;8.73;;
70800;SDS011;59616;52.170;5.386;2023-09-08T01:02:54;17.27;;;9.40;;
70800;SDS011;59616;52.170;5.386;2023-09-08T01:05:21;18.13;;;9.23;;
70800;SDS011;59616;52.170;5.386;2023-09-08T01:07:49;19.08;;;9.43;;
70800;SDS011;59616;52.170;5.386;2023-09-08T01:10:17;16.85;;;9.35;;
70800;SDS011;59616;52.170;5.386;2023-09-08T01:12:45;18.23;;;9.32;;
70800;SDS011;59616;52.170;5.386;2023-09-08T01:15:12;16.13;;;8.85;;
70800;SDS011;59616;52.170;5.386;2023-09-08T01:17:40;19.10;;;10.38;;
70800;SDS011;59616;52.170;5.386;2023-09-08T01:20:24;18.52;;;9.57;;
70800;SDS011;59616;52.170;5.386;2023-09-08T01:23:01;17.58;;;9.57;;
70800;SDS011;59616;52.170;5.386;2023-09-08T01:25:31;19.05;;;10.23;;
70800;SDS011;59616;52.170;5.386;2023-09-08T01:28:00;19.75;;;10.18;;
70800;SDS011;59616;52.170;5.386;2023-09-08T01:30:28;18.25;;;10.27;;
70800;SDS011;59616;52.170;5.386;2023-09-08T01:32:58;19.67;;;10.32;;
70800;SDS011;59616;52.170;5.386;2023-09-08T01:35:26;18.40;;;10.73;;
70800;SDS011;59616;52.170;5.386;2023-09-08T01:37:54;19.77;;;10.68;;
70800;SDS011;59616;52.170;5.386;2023-09-08T01:40:21;18.90;;;10.20;;
70800;SDS011;59616;52.170;5.386;2023-09-08T01:42:48;21.00;;;10.73;;
70800;SDS011;59616;52.170;5.386;2023-09-08T01:45:16;20.63;;;11.23;;
70800;SDS011;59616;52.170;5.386;2023-09-08T01:47:43;22.30;;;10.27;;
70800;SDS011;59616;52.170;5.386;2023-09-08T01:50:10;20.85;;;10.88;;
70800;SDS011;59616;52.170;5.386;2023-09-08T01:52:38;21.48;;;10.95;;
70800;SDS011;59616;52.170;5.386;2023-09-08T01:55:05;19.75;;;10.73;;
70800;SDS011;59616;52.170;5.386;2023-09-08T01:57:34;21.77;;;12.35;;
70800;SDS011;59616;52.170;5.386;2023-09-08T02:00:01;19.67;;;11.73;;
70800;SDS011;59616;52.170;5.386;2023-09-08T02:02:37;19.55;;;11.05;;
70800;SDS011;59616;52.170;5.386;2023-09-08T02:05:05;21.45;;;10.75;;
70800;SDS011;59616;52.170;5.386;2023-09-08T02:07:33;21.80;;;10.98;;
70800;SDS011;59616;52.170;5.386;2023-09-08T02:10:00;20.30;;;11.43;;
70800;SDS011;59616;52.170;5.386;2023-09-08T02:12:27;21.10;;;11.00;;
70800;SDS011;59616;52.170;5.386;2023-09-08T02:14:55;21.30;;;11.25;;
70800;SDS011;59616;52.170;5.386;2023-09-08T02:17:22;21.25;;;11.02;;
70800;SDS011;59616;52.170;5.386;2023-09-08T02:19:49;22.88;;;11.20;;
70800;SDS011;59616;52.170;5.386;2023-09-08T02:22:16;21.25;;;10.68;;
70800;SDS011;59616;52.170;5.386;2023-09-08T02:24:44;19.25;;;11.05;;
70800;SDS011;59616;52.170;5.386;2023-09-08T02:27:11;21.52;;;11.27;;
70800;SDS011;59616;52.170;5.386;2023-09-08T02:29:39;20.60;;;10.85;;
70800;SDS011;59616;52.170;5.386;2023-09-08T02:32:06;21.38;;;10.95;;
70800;SDS011;59616;52.170;5.386;2023-09-08T02:34:34;22.02;;;11.70;;
70800;SDS011;59616;52.170;5.386;2023-09-08T02:37:03;18.98;;;10.82;;
70800;SDS011;59616;52.170;5.386;2023-09-08T02:39:32;20.42;;;11.43;;
70800;SDS011;59616;52.170;5.386;2023-09-08T02:41:59;21.05;;;11.90;;
70800;SDS011;59616;52.170;5.386;2023-09-08T02:44:27;20.17;;;11.10;;
70800;SDS011;59616;52.170;5.386;2023-09-08T02:46:55;22.75;;;12.73;;
70800;SDS011;59616;52.170;5.386;2023-09-08T02:49:24;21.35;;;11.32;;
70800;SDS011;59616;52.170;5.386;2023-09-08T02:51:51;20.67;;;11.63;;
70800;SDS011;59616;52.170;5.386;2023-09-08T02:54:18;18.70;;;10.55;;
70800;SDS011;59616;52.170;5.386;2023-09-08T02:56:45;21.10;;;11.48;;
70800;SDS011;59616;52.170;5.386;2023-09-08T02:59:13;19.33;;;11.27;;
70800;SDS011;59616;52.170;5.386;2023-09-08T03:01:40;19.35;;;11.38;;
70800;SDS011;59616;52.170;5.386;2023-09-08T03:04:08;23.15;;;12.18;;
70800;SDS011;59616;52.170;5.386;2023-09-08T03:06:35;21.38;;;11.05;;
70800;SDS011;59616;52.170;5.386;2023-09-08T03:09:02;21.88;;;12.20;;
70800;SDS011;59616;52.170;5.386;2023-09-08T03:11:30;20.30;;;11.70;;
70800;SDS011;59616;52.170;5.386;2023-09-08T03:13:57;22.00;;;11.88;;
70800;SDS011;59616;52.170;5.386;2023-09-08T03:16:25;21.92;;;12.23;;
70800;SDS011;59616;52.170;5.386;2023-09-08T03:18:52;24.73;;;11.98;;
70800;SDS011;59616;52.170;5.386;2023-09-08T03:21:19;22.23;;;11.65;;
70800;SDS011;59616;52.170;5.386;2023-09-08T03:23:46;22.75;;;12.15;;
70800;SDS011;59616;52.170;5.386;2023-09-08T03:26:15;20.30;;;11.30;;
70800;SDS011;59616;52.170;5.386;2023-09-08T03:28:42;22.42;;;11.75;;
70800;SDS011;59616;52.170;5.386;2023-09-08T03:31:09;22.45;;;11.93;;
70800;SDS011;59616;52.170;5.386;2023-09-08T03:33:37;22.83;;;11.95;;
70800;SDS011;59616;52.170;5.386;2023-09-08T03:36:07;22.35;;;12.65;;
70800;SDS011;59616;52.170;5.386;2023-09-08T03:38:35;20.70;;;11.32;;
70800;SDS011;59616;52.170;5.386;2023-09-08T03:41:03;21.33;;;11.52;;
70800;SDS011;59616;52.170;5.386;2023-09-08T03:43:31;19.83;;;10.70;;
70800;SDS011;59616;52.170;5.386;2023-09-08T03:46:00;21.42;;;11.75;;
70800;SDS011;59616;52.170;5.386;2023-09-08T03:48:27;22.83;;;12.27;;
70800;SDS011;59616;52.170;5.386;2023-09-08T03:50:54;23.80;;;12.88;;
70800;SDS011;59616;52.170;5.386;2023-09-08T03:53:22;26.48;;;13.27;;
70800;SDS011;59616;52.170;5.386;2023-09-08T03:55:49;22.85;;;12.13;;
70800;SDS011;59616;52.170;5.386;2023-09-08T03:58:17;25.77;;;12.50;;
70800;SDS011;59616;52.170;5.386;2023-09-08T04:00:44;23.77;;;13.20;;
70800;SDS011;59616;52.170;5.386;2023-09-08T04:03:11;23.50;;;11.90;;
70800;SDS011;59616;52.170;5.386;2023-09-08T04:05:39;23.65;;;12.40;;
70800;SDS011;59616;52.170;5.386;2023-09-08T04:08:06;22.75;;;12.32;;
70800;SDS011;59616;52.170;5.386;2023-09-08T04:10:34;22.85;;;12.07;;
70800;SDS011;59616;52.170;5.386;2023-09-08T04:13:01;22.65;;;12.20;;
70800;SDS011;59616;52.170;5.386;2023-09-08T04:15:28;22.85;;;12.40;;
70800;SDS011;59616;52.170;5.386;2023-09-08T04:17:56;21.88;;;11.60;;
70800;SDS011;59616;52.170;5.386;2023-09-08T04:20:24;23.70;;;12.60;;
70800;SDS011;59616;52.170;5.386;2023-09-08T04:22:52;23.80;;;12.93;;
70800;SDS011;59616;52.170;5.386;2023-09-08T04:25:20;24.45;;;12.65;;
70800;SDS011;59616;52.170;5.386;2023-09-08T04:27:47;20.77;;;12.25;;
70800;SDS011;59616;52.170;5.386;2023-09-08T04:30:15;22.55;;;12.18;;
70800;SDS011;59616;52.170;5.386;2023-09-08T04:32:42;22.40;;;11.95;;
70800;SDS011;59616;52.170;5.386;2023-09-08T04:35:10;23.05;;;12.70;;
70800;SDS011;59616;52.170;5.386;2023-09-08T04:37:38;22.52;;;12.15;;
70800;SDS011;59616;52.170;5.386;2023-09-08T04:40:06;25.67;;;12.77;;
70800;SDS011;59616;52.170;5.386;2023-09-08T04:42:34;23.67;;;12.40;;
70800;SDS011;59616;52.170;5.386;2023-09-08T04:45:03;23.58;;;12.35;;
70800;SDS011;59616;52.170;5.386;2023-09-08T04:47:30;23.10;;;12.05;;
70800;SDS011;59616;52.170;5.386;2023-09-08T04:49:58;21.92;;;11.95;;
70800;SDS011;59616;52.170;5.386;2023-09-08T04:52:25;24.50;;;12.85;;
70800;SDS011;59616;52.170;5.386;2023-09-08T04:54:53;24.73;;;12.98;;
70800;SDS011;59616;52.170;5.386;2023-09-08T04:57:21;24.52;;;12.45;;
70800;SDS011;59616;52.170;5.386;2023-09-08T04:59:52;23.70;;;12.75;;
70800;SDS011;59616;52.170;5.386;2023-09-08T05:02:20;23.08;;;12.57;;
70800;SDS011;59616;52.170;5.386;2023-09-08T05:04:47;22.40;;;12.18;;
70800;SDS011;59616;52.170;5.386;2023-09-08T05:07:15;22.50;;;12.60;;
70800;SDS011;59616;52.170;5.386;2023-09-08T05:09:45;24.35;;;12.40;;
70800;SDS011;59616;52.170;5.386;2023-09-08T05:12:13;25.40;;;13.05;;
70800;SDS011;59616;52.170;5.386;2023-09-08T05:14:41;23.65;;;12.55;;
70800;SDS011;59616;52.170;5.386;2023-09-08T05:17:08;24.27;;;11.95;;
70800;SDS011;59616;52.170;5.386;2023-09-08T05:19:35;24.83;;;12.30;;
70800;SDS011;59616;52.170;5.386;2023-09-08T05:22:04;23.88;;;12.73;;
70800;SDS011;59616;52.170;5.386;2023-09-08T05:24:32;24.90;;;12.63;;
70800;SDS011;59616;52.170;5.386;2023-09-08T05:27:00;22.92;;;12.80;;
70800;SDS011;59616;52.170;5.386;2023-09-08T05:29:27;22.83;;;11.98;;
70800;SDS011;59616;52.170;5.386;2023-09-08T05:31:54;21.88;;;12.00;;
70800;SDS011;59616;52.170;5.386;2023-09-08T05:34:22;22.60;;;11.80;;
70800;SDS011;59616;52.170;5.386;2023-09-08T05:36:49;24.73;;;12.32;;
70800;SDS011;59616;52.170;5.386;2023-09-08T05:39:17;23.70;;;11.88;;
70800;SDS011;59616;52.170;5.386;2023-09-08T05:41:45;25.65;;;12.27;;
70800;SDS011;59616;52.170;5.386;2023-09-08T05:44:13;26.35;;;12.57;;
70800;SDS011;59616;52.170;5.386;2023-09-08T05:46:40;23.42;;;12.27;;
70800;SDS011;59616;52.170;5.386;2023-09-08T05:49:08;22.08;;;12.60;;
70800;SDS011;59616;52.170;5.386;2023-09-08T05:51:36;24.08;;;13.10;;
70800;SDS011;59616;52.170;5.386;2023-09-08T05:54:04;23.92;;;11.98;;
70800;SDS011;59616;52.170;5.386;2023-09-08T05:56:32;22.83;;;12.10;;
70800;SDS011;59616;52.170;5.386;2023-09-08T05:59:00;24.20;;;12.40;;
70800;SDS011;59616;52.170;5.386;2023-09-08T06:01:29;24.70;;;12.90;;
70800;SDS011;59616;52.170;5.386;2023-09-08T06:03:57;24.77;;;13.27;;
70800;SDS011;59616;52.170;5.386;2023-09-08T06:06:27;23.17;;;11.98;;
70800;SDS011;59616;52.170;5.386;2023-09-08T06:08:55;22.65;;;11.80;;
70800;SDS011;59616;52.170;5.386;2023-09-08T06:11:22;24.23;;;12.27;;
70800;SDS011;59616;52.170;5.386;2023-09-08T06:13:50;23.15;;;12.05;;
70800;SDS011;59616;52.170;5.386;2023-09-08T06:16:19;23.10;;;12.43;;
70800;SDS011;59616;52.170;5.386;2023-09-08T06:18:46;25.10;;;12.77;;
70800;SDS011;59616;52.170;5.386;2023-09-08T06:21:17;26.13;;;12.88;;
70800;SDS011;59616;52.170;5.386;2023-09-08T06:23:45;21.08;;;11.55;;
70800;SDS011;59616;52.170;5.386;2023-09-08T06:26:12;23.98;;;12.57;;
70800;SDS011;59616;52.170;5.386;2023-09-08T06:28:40;26.17;;;11.98;;
70800;SDS011;59616;52.170;5.386;2023-09-08T06:31:09;23.33;;;12.75;;
70800;SDS011;59616;52.170;5.386;2023-09-08T06:33:39;22.10;;;12.20;;
70800;SDS011;59616;52.170;5.386;2023-09-08T06:36:06;23.70;;;11.82;;
70800;SDS011;59616;52.170;5.386;2023-09-08T06:38:33;22.98;;;12.38;;
70800;SDS011;59616;52.170;5.386;2023-09-08T06:41:08;23.50;;;11.52;;
70800;SDS011;59616;52.170;5.386;2023-09-08T06:43:35;23.70;;;11.85;;
70800;SDS011;59616;52.170;5.386;2023-09-08T06:48:35;23.85;;;11.95;;
70800;SDS011;59616;52.170;5.386;2023-09-08T06:51:03;20.92;;;11.15;;
70800;SDS011;59616;52.170;5.386;2023-09-08T06:53:31;22.67;;;12.20;;
70800;SDS011;59616;52.170;5.386;2023-09-08T06:55:59;19.80;;;11.18;;
70800;SDS011;59616;52.170;5.386;2023-09-08T06:58:27;23.17;;;12.18;;
70800;SDS011;59616;52.170;5.386;2023-09-08T07:00:55;21.65;;;11.13;;
70800;SDS011;59616;52.170;5.386;2023-09-08T07:03:23;22.17;;;10.85;;
70800;SDS011;59616;52.170;5.386;2023-09-08T07:05:51;18.77;;;10.45;;
70800;SDS011;59616;52.170;5.386;2023-09-08T07:08:20;21.88;;;11.07;;
70800;SDS011;59616;52.170;5.386;2023-09-08T07:10:51;22.48;;;11.20;;
70800;SDS011;59616;52.170;5.386;2023-09-08T07:13:19;24.92;;;10.68;;
70800;SDS011;59616;52.170;5.386;2023-09-08T07:15:47;23.23;;;10.13;;
70800;SDS011;59616;52.170;5.386;2023-09-08T07:18:14;18.73;;;10.43;;
70800;SDS011;59616;52.170;5.386;2023-09-08T07:20:45;22.60;;;10.50;;
70800;SDS011;59616;52.170;5.386;2023-09-08T07:23:14;19.58;;;10.90;;
70800;SDS011;59616;52.170;5.386;2023-09-08T07:25:44;19.00;;;9.95;;
70800;SDS011;59616;52.170;5.386;2023-09-08T07:28:12;19.20;;;9.93;;
70800;SDS011;59616;52.170;5.386;2023-09-08T07:30:39;19.05;;;9.50;;
70800;SDS011;59616;52.170;5.386;2023-09-08T07:33:06;21.65;;;9.70;;
70800;SDS011;59616;52.170;5.386;2023-09-08T07:35:38;20.02;;;9.57;;
70800;SDS011;59616;52.170;5.386;2023-09-08T07:38:06;19.00;;;9.15;;
70800;SDS011;59616;52.170;5.386;2023-09-08T07:40:34;16.55;;;8.90;;
70800;SDS011;59616;52.170;5.386;2023-09-08T07:43:01;17.80;;;9.68;;
70800;SDS011;59616;52.170;5.386;2023-09-08T07:45:29;16.48;;;8.68;;
70800;SDS011;59616;52.170;5.386;2023-09-08T07:47:56;17.92;;;9.45;;
70800;SDS011;59616;52.170;5.386;2023-09-08T07:50:24;18.58;;;9.00;;
70800;SDS011;59616;52.170;5.386;2023-09-08T07:52:52;17.10;;;9.23;;
70800;SDS011;59616;52.170;5.386;2023-09-08T07:55:20;17.55;;;9.00;;
70800;SDS011;59616;52.170;5.386;2023-09-08T07:57:54;21.35;;;9.27;;
70800;SDS011;59616;52.170;5.386;2023-09-08T08:00:21;18.77;;;9.80;;
70800;SDS011;59616;52.170;5.386;2023-09-08T08:02:49;21.65;;;9.73;;
70800;SDS011;59616;52.170;5.386;2023-09-08T08:05:17;16.17;;;8.52;;
70800;SDS011;59616;52.170;5.386;2023-09-08T08:07:44;19.73;;;9.60;;
70800;SDS011;59616;52.170;5.386;2023-09-08T08:10:12;17.23;;;9.50;;
70800;SDS011;59616;52.170;5.386;2023-09-08T08:12:39;18.10;;;9.52;;
70800;SDS011;59616;52.170;5.386;2023-09-08T08:15:08;18.65;;;9.13;;
70800;SDS011;59616;52.170;5.386;2023-09-08T08:17:36;19.98;;;9.05;;
70800;SDS011;59616;52.170;5.386;2023-09-08T08:20:07;17.70;;;9.30;;
70800;SDS011;59616;52.170;5.386;2023-09-08T08:22:36;19.20;;;9.55;;
70800;SDS011;59616;52.170;5.386;2023-09-08T08:25:04;18.55;;;8.15;;
70800;SDS011;59616;52.170;5.386;2023-09-08T08:27:32;16.85;;;8.82;;
70800;SDS011;59616;52.170;5.386;2023-09-08T08:29:59;15.98;;;8.93;;
70800;SDS011;59616;52.170;5.386;2023-09-08T08:32:27;15.63;;;8.63;;
70800;SDS011;59616;52.170;5.386;2023-09-08T08:34:54;15.43;;;8.48;;
70800;SDS011;59616;52.170;5.386;2023-09-08T08:37:23;15.00;;;7.90;;
70800;SDS011;59616;52.170;5.386;2023-09-08T08:39:50;14.88;;;7.70;;
70800;SDS011;59616;52.170;5.386;2023-09-08T08:42:18;15.50;;;8.20;;
70800;SDS011;59616;52.170;5.386;2023-09-08T08:44:48;14.60;;;8.02;;
70800;SDS011;59616;52.170;5.386;2023-09-08T08:47:16;13.73;;;7.55;;
70800;SDS011;59616;52.170;5.386;2023-09-08T08:49:45;15.20;;;8.10;;
70800;SDS011;59616;52.170;5.386;2023-09-08T08:52:13;12.93;;;7.20;;
70800;SDS011;59616;52.170;5.386;2023-09-08T08:54:41;17.27;;;7.88;;
70800;SDS011;59616;52.170;5.386;2023-09-08T08:57:09;13.80;;;7.68;;
70800;SDS011;59616;52.170;5.386;2023-09-08T08:59:38;13.57;;;7.80;;
70800;SDS011;59616;52.170;5.386;2023-09-08T09:02:07;15.27;;;7.10;;
70800;SDS011;59616;52.170;5.386;2023-09-08T09:04:37;12.90;;;6.97;;
70800;SDS011;59616;52.170;5.386;2023-09-08T09:07:07;16.25;;;6.95;;
70800;SDS011;59616;52.170;5.386;2023-09-08T09:09:35;15.02;;;7.35;;
70800;SDS011;59616;52.170;5.386;2023-09-08T09:12:02;14.85;;;7.28;;
70800;SDS011;59616;52.170;5.386;2023-09-08T09:14:33;14.20;;;7.63;;
70800;SDS011;59616;52.170;5.386;2023-09-08T09:17:01;13.05;;;7.20;;
70800;SDS011;59616;52.170;5.386;2023-09-08T09:19:31;12.35;;;6.90;;
70800;SDS011;59616;52.170;5.386;2023-09-08T09:21:59;12.80;;;6.70;;
70800;SDS011;59616;52.170;5.386;2023-09-08T09:24:30;14.50;;;7.07;;
70800;SDS011;59616;52.170;5.386;2023-09-08T09:27:04;12.85;;;7.13;;
70800;SDS011;59616;52.170;5.386;2023-09-08T09:29:34;13.55;;;7.25;;
70800;SDS011;59616;52.170;5.386;2023-09-08T09:32:11;13.15;;;6.63;;
70800;SDS011;59616;52.170;5.386;2023-09-08T09:34:49;14.40;;;7.28;;
70800;SDS011;59616;52.170;5.386;2023-09-08T09:37:19;12.13;;;6.93;;
70800;SDS011;59616;52.170;5.386;2023-09-08T09:39:51;11.55;;;6.88;;
70800;SDS011;59616;52.170;5.386;2023-09-08T09:42:18;13.25;;;6.90;;
70800;SDS011;59616;52.170;5.386;2023-09-08T09:44:47;16.33;;;7.10;;
70800;SDS011;59616;52.170;5.386;2023-09-08T09:47:15;12.63;;;6.60;;
70800;SDS011;59616;52.170;5.386;2023-09-08T09:49:43;14.43;;;6.53;;
70800;SDS011;59616;52.170;5.386;2023-09-08T09:52:11;14.10;;;6.60;;
70800;SDS011;59616;52.170;5.386;2023-09-08T09:54:42;11.95;;;6.47;;
70800;SDS011;59616;52.170;5.386;2023-09-08T09:57:13;12.85;;;6.78;;
70800;SDS011;59616;52.170;5.386;2023-09-08T09:59:41;13.25;;;7.07;;
70800;SDS011;59616;52.170;5.386;2023-09-08T10:02:10;13.10;;;6.82;;
70800;SDS011;59616;52.170;5.386;2023-09-08T10:04:42;12.73;;;6.35;;
70800;SDS011;59616;52.170;5.386;2023-09-08T10:07:09;13.70;;;6.38;;
70800;SDS011;59616;52.170;5.386;2023-09-08T10:09:37;13.40;;;6.55;;
70800;SDS011;59616;52.170;5.386;2023-09-08T10:12:05;11.13;;;6.20;;
70800;SDS011;59616;52.170;5.386;2023-09-08T10:14:33;11.15;;;6.40;;
70800;SDS011;59616;52.170;5.386;2023-09-08T10:17:02;10.50;;;5.65;;
70800;SDS011;59616;52.170;5.386;2023-09-08T10:19:34;12.10;;;6.43;;
70800;SDS011;59616;52.170;5.386;2023-09-08T10:22:11;21.30;;;7.25;;
70800;SDS011;59616;52.170;5.386;2023-09-08T10:24:41;28.20;;;6.97;;
70800;SDS011;59616;52.170;5.386;2023-09-08T10:27:10;13.68;;;6.88;;
70800;SDS011;59616;52.170;5.386;2023-09-08T10:29:38;23.35;;;9.10;;
70800;SDS011;59616;52.170;5.386;2023-09-08T10:32:07;56.40;;;24.73;;
70800;SDS011;59616;52.170;5.386;2023-09-08T10:34:36;26.58;;;11.63;;
70800;SDS011;59616;52.170;5.386;2023-09-08T10:37:03;14.50;;;7.65;;
70800;SDS011;59616;52.170;5.386;2023-09-08T10:39:44;12.95;;;7.32;;
70800;SDS011;59616;52.170;5.386;2023-09-08T10:47:19;12.48;;;6.15;;
70800;SDS011;59616;52.170;5.386;2023-09-08T10:49:46;11.70;;;6.57;;
70800;SDS011;59616;52.170;5.386;2023-09-08T10:52:14;10.48;;;6.25;;
70800;SDS011;59616;52.170;5.386;2023-09-08T10:54:50;14.85;;;6.47;;
70800;SDS011;59616;52.170;5.386;2023-09-08T10:57:18;11.77;;;6.55;;
70800;SDS011;59616;52.170;5.386;2023-09-08T10:59:54;13.50;;;6.95;;
70800;SDS011;59616;52.170;5.386;2023-09-08T11:02:41;15.30;;;6.40;;
70800;SDS011;59616;52.170;5.386;2023-09-08T11:05:14;11.98;;;6.78;;
70800;SDS011;59616;52.170;5.386;2023-09-08T11:07:43;11.60;;;6.70;;
70800;SDS011;59616;52.170;5.386;2023-09-08T11:10:11;13.70;;;6.93;;
70800;SDS011;59616;52.170;5.386;2023-09-08T11:12:39;18.58;;;6.90;;
70800;SDS011;59616;52.170;5.386;2023-09-08T11:15:07;11.23;;;7.20;;
70800;SDS011;59616;52.170;5.386;2023-09-08T11:17:35;12.63;;;6.70;;
70800;SDS011;59616;52.170;5.386;2023-09-08T11:20:06;11.57;;;6.90;;
70800;SDS011;59616;52.170;5.386;2023-09-08T11:22:39;12.07;;;6.43;;
70800;SDS011;59616;52.170;5.386;2023-09-08T11:25:07;9.90;;;5.78;;
70800;SDS011;59616;52.170;5.386;2023-09-08T11:27:37;12.25;;;6.75;;
70800;SDS011;59616;52.170;5.386;2023-09-08T11:30:06;11.52;;;6.32;;
70800;SDS011;59616;52.170;5.386;2023-09-08T11:32:34;10.20;;;5.90;;
70800;SDS011;59616;52.170;5.386;2023-09-08T11:35:06;10.57;;;6.35;;
70800;SDS011;59616;52.170;5.386;2023-09-08T11:37:39;10.88;;;6.00;;
70800;SDS011;59616;52.170;5.386;2023-09-08T11:40:08;10.80;;;6.20;;
70800;SDS011;59616;52.170;5.386;2023-09-08T11:42:36;11.00;;;6.40;;
70800;SDS011;59616;52.170;5.386;2023-09-08T11:45:15;13.48;;;6.18;;
70800;SDS011;59616;52.170;5.386;2023-09-08T11:47:49;13.02;;;6.65;;
70800;SDS011;59616;52.170;5.386;2023-09-08T11:50:17;10.05;;;5.72;;
70800;SDS011;59616;52.170;5.386;2023-09-08T11:52:46;12.43;;;6.25;;
70800;SDS011;59616;52.170;5.386;2023-09-08T11:55:14;10.68;;;5.72;;
70800;SDS011;59616;52.170;5.386;2023-09-08T11:57:42;10.38;;;5.88;;
70800;SDS011;59616;52.170;5.386;2023-09-08T12:00:12;15.15;;;5.30;;
70800;SDS011;59616;52.170;5.386;2023-09-08T12:02:44;9.32;;;5.47;;
70800;SDS011;59616;52.170;5.386;2023-09-08T12:05:12;11.65;;;5.85;;
70800;SDS011;59616;52.170;5.386;2023-09-08T12:07:40;12.68;;;6.40;;
70800;SDS011;59616;52.170;5.386;2023-09-08T12:10:10;12.73;;;5.60;;
70800;SDS011;59616;52.170;5.386;2023-09-08T12:12:42;13.43;;;5.97;;
70800;SDS011;59616;52.170;5.386;2023-09-08T12:18:09;11.35;;;5.60;;
70800;SDS011;59616;52.170;5.386;2023-09-08T12:20:39;11.18;;;5.90;;
70800;SDS011;59616;52.170;5.386;2023-09-08T12:23:14;12.73;;;5.80;;
70800;SDS011;59616;52.170;5.386;2023-09-08T12:25:46;10.18;;;5.90;;
70800;SDS011;59616;52.170;5.386;2023-09-08T12:28:19;11.57;;;6.40;;
70800;SDS011;59616;52.170;5.386;2023-09-08T12:30:48;11.48;;;5.72;;
70800;SDS011;59616;52.170;5.386;2023-09-08T12:33:16;11.15;;;6.35;;
70800;SDS011;59616;52.170;5.386;2023-09-08T12:35:47;11.10;;;6.20;;
70800;SDS011;59616;52.170;5.386;2023-09-08T12:38:17;13.68;;;6.53;;
70800;SDS011;59616;52.170;5.386;2023-09-08T12:40:44;14.65;;;6.35;;
70800;SDS011;59616;52.170;5.386;2023-09-08T12:43:12;9.10;;;5.13;;
70800;SDS011;59616;52.170;5.386;2023-09-08T12:45:53;10.00;;;5.70;;
70800;SDS011;59616;52.170;5.386;2023-09-08T12:48:21;9.88;;;5.22;;
70800;SDS011;59616;52.170;5.386;2023-09-08T12:50:49;11.65;;;5.13;;
70800;SDS011;59616;52.170;5.386;2023-09-08T12:53:16;10.93;;;5.40;;
70800;SDS011;59616;52.170;5.386;2023-09-08T12:55:49;10.48;;;5.75;;
70800;SDS011;59616;52.170;5.386;2023-09-08T12:58:16;10.98;;;5.38;;
70800;SDS011;59616;52.170;5.386;2023-09-08T13:00:44;10.75;;;5.32;;
70800;SDS011;59616;52.170;5.386;2023-09-08T13:03:11;10.13;;;5.30;;
70800;SDS011;59616;52.170;5.386;2023-09-08T13:05:38;10.73;;;5.30;;
70800;SDS011;59616;52.170;5.386;2023-09-08T13:08:06;11.45;;;5.40;;
70800;SDS011;59616;52.170;5.386;2023-09-08T13:10:33;9.95;;;5.50;;
70800;SDS011;59616;52.170;5.386;2023-09-08T13:13:00;10.52;;;4.90;;
70800;SDS011;59616;52.170;5.386;2023-09-08T13:15:28;10.52;;;5.28;;
70800;SDS011;59616;52.170;5.386;2023-09-08T13:17:55;10.48;;;5.43;;
70800;SDS011;59616;52.170;5.386;2023-09-08T13:20:23;11.60;;;4.75;;
70800;SDS011;59616;52.170;5.386;2023-09-08T13:22:50;8.85;;;4.80;;
70800;SDS011;59616;52.170;5.386;2023-09-08T13:25:18;12.93;;;5.35;;
70800;SDS011;59616;52.170;5.386;2023-09-08T13:27:45;9.50;;;4.90;;
70800;SDS011;59616;52.170;5.386;2023-09-08T13:30:14;9.68;;;5.18;;
70800;SDS011;59616;52.170;5.386;2023-09-08T13:32:42;10.75;;;5.47;;
70800;SDS011;59616;52.170;5.386;2023-09-08T13:35:10;9.93;;;4.72;;
70800;SDS011;59616;52.170;5.386;2023-09-08T13:37:37;10.05;;;5.15;;
70800;SDS011;59616;52.170;5.386;2023-09-08T13:40:05;9.00;;;5.38;;
70800;SDS011;59616;52.170;5.386;2023-09-08T13:42:34;10.25;;;4.63;;
70800;SDS011;59616;52.170;5.386;2023-09-08T13:45:01;9.20;;;5.05;;
70800;SDS011;59616;52.170;5.386;2023-09-08T13:47:29;10.57;;;5.13;;
70800;SDS011;59616;52.170;5.386;2023-09-08T13:49:58;9.55;;;5.40;;
70800;SDS011;59616;52.170;5.386;2023-09-08T13:52:31;9.90;;;5.38;;
70800;SDS011;59616;52.170;5.386;2023-09-08T13:55:03;11.23;;;5.57;;
70800;SDS011;59616;52.170;5.386;2023-09-08T13:57:50;10.02;;;5.55;;
70800;SDS011;59616;52.170;5.386;2023-09-08T14:00:21;9.35;;;5.18;;
70800;SDS011;59616;52.170;5.386;2023-09-08T14:02:50;9.68;;;4.93;;
70800;SDS011;59616;52.170;5.386;2023-09-08T14:05:24;8.65;;;5.50;;
70800;SDS011;59616;52.170;5.386;2023-09-08T14:07:56;8.73;;;5.13;;
70800;SDS011;59616;52.170;5.386;2023-09-08T14:10:34;9.45;;;5.15;;
70800;SDS011;59616;52.170;5.386;2023-09-08T14:13:04;12.20;;;5.28;;
70800;SDS011;59616;52.170;5.386;2023-09-08T14:15:31;8.35;;;4.82;;
70800;SDS011;59616;52.170;5.386;2023-09-08T14:17:58;10.48;;;5.07;;
70800;SDS011;59616;52.170;5.386;2023-09-08T14:20:25;9.63;;;5.18;;
70800;SDS011;59616;52.170;5.386;2023-09-08T14:22:53;8.43;;;5.20;;
70800;SDS011;59616;52.170;5.386;2023-09-08T14:25:20;10.90;;;5.60;;
70800;SDS011;59616;52.170;5.386;2023-09-08T14:27:47;11.02;;;5.82;;
70800;SDS011;59616;52.170;5.386;2023-09-08T14:30:14;10.02;;;5.50;;
70800;SDS011;59616;52.170;5.386;2023-09-08T14:32:42;11.10;;;5.22;;
70800;SDS011;59616;52.170;5.386;2023-09-08T14:35:09;9.80;;;5.50;;
70800;SDS011;59616;52.170;5.386;2023-09-08T14:37:36;10.30;;;5.93;;
70800;SDS011;59616;52.170;5.386;2023-09-08T14:40:04;9.50;;;5.15;;
70800;SDS011;59616;52.170;5.386;2023-09-08T14:42:32;10.38;;;5.30;;
70800;SDS011;59616;52.170;5.386;2023-09-08T14:44:59;10.07;;;5.53;;
70800;SDS011;59616;52.170;5.386;2023-09-08T14:47:26;10.65;;;5.38;;
70800;SDS011;59616;52.170;5.386;2023-09-08T14:49:54;11.38;;;5.53;;